createdAt,value
2022-08-27T00:04:54.141Z,8.47
2022-08-27T00:09:59.493Z,8.93
2022-08-27T00:15:07.721Z,8.83
2022-08-27T00:20:15.877Z,10.17
2022-08-27T00:25:22.699Z,8.43
2022-08-27T00:30:28.408Z,9.00
2022-08-27T00:35:34.426Z,8.60
2022-08-27T00:40:39.845Z,8.87
2022-08-27T00:45:46.995Z,9.43
2022-08-27T00:50:55.075Z,10.13
2022-08-27T00:56:19.368Z,9.13
2022-08-27T01:01:27.695Z,9.03
2022-08-27T01:06:36.863Z,9.67
2022-08-27T01:11:43.183Z,9.07
2022-08-27T01:16:51.495Z,9.73
2022-08-27T01:22:02.781Z,8.93
2022-08-27T01:27:13.584Z,9.50
2022-08-27T01:32:21.217Z,9.53
2022-08-27T01:37:27.954Z,9.17
2022-08-27T01:42:48.256Z,9.60
2022-08-27T01:47:53.695Z,8.93
2022-08-27T01:53:01.689Z,10.03
2022-08-27T01:58:07.074Z,9.30
2022-08-27T02:03:13.827Z,9.37
2022-08-27T02:08:20.492Z,8.50
2022-08-27T02:13:25.844Z,8.43
2022-08-27T02:18:31.281Z,8.33
2022-08-27T02:23:36.732Z,8.50
2022-08-27T02:28:42.819Z,8.73
2022-08-27T02:33:49.261Z,9.33
2022-08-27T02:38:56.391Z,9.10
2022-08-27T02:44:01.802Z,8.83
2022-08-27T02:49:08.392Z,8.53
2022-08-27T02:54:15.219Z,9.33
2022-08-27T02:59:22.688Z,8.73
2022-08-27T03:04:29.552Z,8.93
2022-08-27T03:09:35.000Z,9.13
2022-08-27T03:14:41.319Z,9.63
2022-08-27T03:19:46.722Z,9.20
2022-08-27T03:24:52.172Z,10.60
2022-08-27T03:30:00.734Z,10.27
2022-08-27T03:35:05.272Z,9.53
2022-08-27T03:40:11.339Z,10.60
2022-08-27T03:45:18.383Z,11.03
2022-08-27T03:50:23.747Z,11.33
2022-08-27T03:55:29.294Z,11.63
2022-08-27T04:00:34.724Z,13.80
2022-08-27T04:05:40.903Z,12.77
2022-08-27T04:10:47.166Z,12.90
2022-08-27T04:15:55.659Z,12.03
2022-08-27T04:21:04.851Z,10.60
2022-08-27T04:26:11.923Z,12.07
2022-08-27T04:31:18.263Z,11.53
2022-08-27T04:36:23.671Z,10.90
2022-08-27T04:41:30.782Z,10.97
2022-08-27T04:46:39.474Z,11.17
2022-08-27T04:51:45.275Z,11.17
2022-08-27T04:56:51.566Z,10.23
2022-08-27T05:01:56.982Z,11.10
2022-08-27T05:07:03.137Z,11.50
2022-08-27T05:12:08.882Z,10.77
2022-08-27T05:17:14.354Z,10.57
2022-08-27T05:22:19.966Z,10.50
2022-08-27T05:27:25.345Z,10.77
2022-08-27T05:32:31.597Z,10.70
2022-08-27T05:37:37.679Z,10.97
2022-08-27T05:42:43.742Z,10.63
2022-08-27T05:47:51.259Z,10.17
2022-08-27T05:52:57.940Z,11.30
2022-08-27T05:58:03.208Z,12.27
2022-08-27T06:03:16.423Z,13.67
2022-08-27T06:08:21.850Z,12.77
2022-08-27T06:13:36.323Z,11.70
2022-08-27T06:18:45.528Z,12.57
2022-08-27T06:23:51.781Z,11.28
2022-08-27T06:28:58.130Z,10.57
2022-08-27T06:34:07.536Z,10.07
2022-08-27T06:39:17.206Z,9.50
2022-08-27T06:44:24.691Z,9.25
2022-08-27T06:49:30.084Z,8.35
2022-08-27T06:54:36.541Z,8.90
2022-08-27T06:59:41.997Z,8.73
2022-08-27T07:04:48.003Z,8.68
2022-08-27T07:09:53.687Z,8.15
2022-08-27T07:14:59.114Z,8.03
2022-08-27T07:20:07.017Z,7.92
2022-08-27T07:25:15.680Z,8.75
2022-08-27T07:30:21.095Z,7.30
2022-08-27T07:35:26.994Z,8.03
2022-08-27T07:40:32.386Z,6.90
2022-08-27T07:45:46.776Z,7.15
2022-08-27T07:50:53.611Z,7.53
2022-08-27T07:56:07.571Z,7.60
2022-08-27T08:01:22.433Z,6.80
2022-08-27T08:06:31.139Z,7.30
2022-08-27T08:11:37.174Z,7.28
2022-08-27T08:16:43.452Z,7.30
2022-08-27T08:21:50.171Z,6.67
2022-08-27T08:26:57.549Z,6.47
2022-08-27T08:32:02.979Z,6.15
2022-08-27T08:37:09.352Z,6.20
2022-08-27T08:42:44.879Z,5.95
2022-08-27T08:47:54.817Z,6.67
2022-08-27T08:53:14.935Z,6.33
2022-08-27T08:58:26.070Z,6.55
2022-08-27T09:03:42.413Z,6.83
2022-08-27T09:08:48.638Z,6.97
2022-08-27T09:14:08.348Z,6.37
2022-08-27T09:19:13.454Z,6.60
2022-08-27T09:24:22.667Z,6.60
2022-08-27T09:29:30.008Z,6.97
2022-08-27T09:34:38.457Z,6.60
2022-08-27T09:39:49.517Z,6.67
2022-08-27T09:44:56.222Z,6.47
2022-08-27T09:50:07.467Z,6.50
2022-08-27T09:55:35.444Z,8.33
2022-08-27T10:00:43.176Z,71.33
2022-08-27T10:05:54.004Z,36.73
2022-08-27T10:11:06.214Z,15.05
2022-08-27T10:16:26.877Z,16.75
2022-08-27T10:21:47.479Z,15.53
2022-08-27T10:27:04.317Z,18.20
2022-08-27T10:32:32.015Z,12.05
2022-08-27T10:37:52.726Z,9.50
2022-08-27T10:43:05.615Z,7.30
2022-08-27T10:48:16.693Z,6.28
2022-08-27T10:53:30.253Z,6.70
2022-08-27T10:58:44.592Z,6.28
2022-08-27T11:03:53.070Z,5.83
2022-08-27T11:09:16.345Z,5.70
2022-08-27T11:14:41.341Z,5.40
2022-08-27T11:20:12.176Z,5.70
2022-08-27T11:25:20.454Z,5.35
2022-08-27T11:30:31.840Z,5.78
2022-08-27T11:36:04.052Z,5.55
2022-08-27T11:41:27.770Z,4.97
2022-08-27T11:46:36.847Z,4.83
2022-08-27T11:51:42.339Z,5.55
2022-08-27T11:56:47.782Z,5.12
2022-08-27T12:01:55.018Z,4.20
2022-08-27T12:07:11.943Z,4.67
2022-08-27T12:12:22.677Z,4.40
2022-08-27T12:17:59.771Z,4.40
2022-08-27T12:23:42.433Z,4.20
2022-08-27T12:28:48.202Z,4.28
2022-08-27T12:33:55.557Z,4.70
2022-08-27T12:39:09.520Z,4.30
2022-08-27T12:44:17.613Z,5.12
2022-08-27T12:49:38.061Z,4.62
2022-08-27T12:54:49.091Z,3.92
2022-08-27T13:00:24.173Z,4.42
2022-08-27T13:05:28.146Z,4.55
2022-08-27T13:10:33.877Z,4.60
2022-08-27T13:15:47.915Z,4.67
2022-08-27T13:20:57.827Z,3.87
2022-08-27T13:26:09.149Z,4.00
2022-08-27T13:31:17.926Z,4.37
2022-08-27T13:36:32.447Z,4.42
2022-08-27T13:41:42.112Z,4.80
2022-08-27T13:46:50.363Z,4.28
2022-08-27T13:52:20.356Z,4.83
2022-08-27T13:57:31.814Z,4.47
2022-08-27T14:02:37.358Z,4.50
2022-08-27T14:07:48.974Z,4.30
2022-08-27T14:13:02.975Z,4.62
2022-08-27T14:18:11.612Z,4.90
2022-08-27T14:23:17.764Z,4.67
2022-08-27T14:28:23.793Z,5.12
2022-08-27T14:33:30.707Z,4.50
2022-08-27T14:38:40.893Z,4.90
2022-08-27T14:43:49.280Z,5.47
2022-08-27T14:48:54.839Z,4.72
2022-08-27T14:54:00.172Z,4.95
2022-08-27T14:59:05.605Z,4.87
2022-08-27T15:04:11.098Z,5.17
2022-08-27T15:09:16.422Z,5.17
2022-08-27T15:14:24.894Z,5.87
2022-08-27T15:19:31.748Z,4.80
2022-08-27T15:24:42.860Z,6.62
2022-08-27T15:29:48.297Z,5.47
2022-08-27T15:34:54.048Z,5.15
2022-08-27T15:40:01.106Z,4.78
2022-08-27T15:45:08.285Z,5.03
2022-08-27T15:50:13.639Z,5.72
2022-08-27T15:55:28.565Z,5.30
2022-08-27T16:00:36.158Z,5.00
2022-08-27T16:05:43.934Z,5.50
2022-08-27T16:10:49.382Z,5.20
2022-08-27T16:15:55.662Z,5.30
2022-08-27T16:21:04.589Z,9.40
2022-08-27T16:26:09.857Z,6.42
2022-08-27T16:31:15.460Z,5.92
2022-08-27T16:36:20.709Z,5.75
2022-08-27T16:41:26.055Z,5.97
2022-08-27T16:46:31.582Z,5.60
2022-08-27T16:51:38.265Z,5.55
2022-08-27T16:56:44.200Z,5.78
2022-08-27T17:01:53.719Z,6.80
2022-08-27T17:07:33.870Z,6.20
2022-08-27T17:12:39.206Z,6.08
2022-08-27T17:17:45.297Z,6.30
2022-08-27T17:22:50.624Z,6.00
2022-08-27T17:27:59.936Z,7.15
2022-08-27T17:33:03.056Z,6.35
2022-08-27T17:38:09.983Z,6.47
2022-08-27T17:43:15.430Z,6.22
2022-08-27T17:48:26.480Z,7.55
2022-08-27T17:53:29.925Z,8.05
2022-08-27T17:58:35.199Z,9.23
2022-08-27T18:03:44.967Z,8.03
2022-08-27T18:08:48.648Z,7.78
2022-08-27T18:14:04.718Z,8.18
2022-08-27T18:19:09.262Z,8.38
2022-08-27T18:24:15.403Z,7.65
2022-08-27T18:29:21.090Z,9.23
2022-08-27T18:34:26.566Z,9.55
2022-08-27T18:39:33.153Z,8.70
2022-08-27T18:44:41.576Z,8.80
2022-08-27T18:49:46.884Z,9.10
2022-08-27T18:54:52.149Z,9.53
2022-08-27T18:59:58.085Z,10.30
2022-08-27T19:05:05.204Z,10.03
2022-08-27T19:10:11.502Z,9.65
2022-08-27T19:15:19.353Z,10.80
2022-08-27T19:20:24.724Z,10.55
2022-08-27T19:25:31.520Z,10.78
2022-08-27T19:30:36.844Z,10.82
2022-08-27T19:35:43.830Z,11.40
2022-08-27T19:40:49.129Z,11.08
2022-08-27T19:45:56.319Z,13.45
2022-08-27T19:51:02.275Z,13.83
2022-08-27T19:56:10.561Z,15.20
2022-08-27T20:01:15.998Z,14.18
2022-08-27T20:06:21.795Z,14.83
2022-08-27T20:11:28.717Z,14.50
2022-08-27T20:16:36.191Z,14.07
2022-08-27T20:21:42.843Z,14.95
2022-08-27T20:26:48.141Z,17.70
2022-08-27T20:31:53.546Z,17.13
2022-08-27T20:36:58.994Z,18.93
2022-08-27T20:42:04.458Z,16.33
2022-08-27T20:47:11.151Z,15.87
2022-08-27T20:52:19.096Z,16.30
2022-08-27T20:57:24.577Z,16.07
2022-08-27T21:02:31.773Z,15.23
2022-08-27T21:07:37.650Z,14.33
2022-08-27T21:12:43.088Z,13.88
2022-08-27T21:17:48.958Z,14.57
2022-08-27T21:22:56.047Z,15.17
2022-08-27T21:28:03.147Z,15.23
2022-08-27T21:33:08.669Z,15.37
2022-08-27T21:38:14.132Z,16.13
2022-08-27T21:43:20.690Z,16.40
2022-08-27T21:48:27.945Z,17.42
2022-08-27T21:53:33.314Z,17.00
2022-08-27T21:58:39.078Z,18.93
2022-08-27T22:03:47.137Z,16.97
2022-08-27T22:08:52.703Z,17.40
2022-08-27T22:13:59.470Z,16.93
2022-08-27T22:19:05.246Z,14.90
2022-08-27T22:24:11.777Z,15.30
2022-08-27T22:29:17.255Z,16.30
2022-08-27T22:34:22.729Z,15.33
2022-08-27T22:39:28.178Z,15.53
2022-08-27T22:44:35.332Z,15.20
2022-08-27T22:49:40.789Z,15.97
2022-08-27T22:54:46.247Z,15.63
2022-08-27T22:59:52.195Z,16.83
2022-08-27T23:04:58.191Z,16.07
2022-08-27T23:10:05.580Z,15.63
2022-08-27T23:15:12.993Z,17.10
2022-08-27T23:20:21.223Z,16.33
2022-08-27T23:25:45.876Z,15.77
2022-08-27T23:30:52.773Z,16.20
2022-08-27T23:35:58.218Z,17.30
2022-08-27T23:41:03.880Z,17.93
2022-08-27T23:46:09.549Z,17.37
2022-08-27T23:51:16.400Z,16.43
2022-08-27T23:56:22.881Z,17.67
